Time;durP1;ratioP1;P1;durP2;ratioP2;P2;SDS_P1;SDS_P2;PMS_P1;PMS_P2;Temp;Humidity;BMP_temperature;BMP_pressure;BME280_temperature;BME280_humidity;BME280_pressure;Samples;Min_cycle;Max_cycle;Signal;HPM_P1;HPM_P2
2022/11/03 00:01:05;;;;;;;;;;;;;;;;;;5049885;28;19908;-61
2022/11/03 00:03:31;;;;;;;;;;;;;;;;;;5049952;28;19920;-61
2022/11/03 00:06:03;;;;;;;;;;;;;;;;;;5043061;28;20016;-60
2022/11/03 00:08:29;;;;;;;;;;;;;;;;;;5049916;28;20293;-60
2022/11/03 00:10:55;;;;;;;;;;;;;;;;;;5049773;28;19913;-61
2022/11/03 00:13:21;;;;;;;;;;;;;;;;;;5049784;28;19913;-61
2022/11/03 00:15:47;;;;;;;;;;;;;;;;;;5049888;28;20027;-61
2022/11/03 00:18:12;;;;;;;;;;;;;;;;;;5049636;28;19917;-60
2022/11/03 00:20:38;;;;;;;;;;;;;;;;;;5049499;28;20010;-60
2022/11/03 00:23:04;;;;;;;;;;;;;;;;;;5049572;28;20396;-61
2022/11/03 00:25:30;;;;;;;;;;;;;;;;;;5049866;28;19925;-60
2022/11/03 00:27:57;;;;;;;;;;;;;;;;;;5049682;28;19999;-60
2022/11/03 00:30:22;;;;;;;;;;;;;;;;;;5049412;28;19958;-61
2022/11/03 00:32:48;;;;;;;;;;;;;;;;;;5049553;28;19998;-61
2022/11/03 00:35:14;;;;;;;;;;;;;;;;;;5048504;28;19909;-60
2022/11/03 00:37:40;;;;;;;;;;;;;;;;;;5053383;28;20458;-60
2022/11/03 00:40:06;;;;;;;;;;;;;;;;;;5051067;28;19916;-61
2022/11/03 00:42:33;;;;;;;;;;;;;;;;;;5050741;28;20392;-61
2022/11/03 00:44:59;;;;;;;;;;;;;;;;;;5052802;28;19938;-61
2022/11/03 00:47:25;;;;;;;;;;;;;;;;;;5050330;28;20356;-61
2022/11/03 00:49:51;;;;;;;;;;;;;;;;;;5053188;28;19920;-62
2022/11/03 00:52:17;;;;;;;;;;;;;;;;;;5053519;28;20376;-60
2022/11/03 00:54:43;;;;;;;;;;;;;;;;;;5053741;28;19913;-61
2022/11/03 00:57:09;;;;;;;;;;;;;;;;;;5053479;28;19908;-60
2022/11/03 00:59:35;;;;;;;;;;;;;;;;;;5053405;28;19917;-60
2022/11/03 01:02:01;;;;;;;;;;;;;;;;;;5053235;28;19912;-61
2022/11/03 01:07:11;;;;;;;;;;;;;;;;;;5053452;28;20384;-61
2022/11/03 01:09:37;;;;;;;;;;;;;;;;;;5053194;28;19912;-61
2022/11/03 01:12:03;;;;;;;;;;;;;;;;;;5052677;28;20051;-60
2022/11/03 01:14:29;;;;;;;;;;;;;;;;;;5053022;28;19909;-60
2022/11/03 01:16:54;;;;;;;;;;;;;;;;;;5053087;28;19913;-61
2022/11/03 01:19:20;;;;;;;;;;;;;;;;;;5053398;28;19915;-60
2022/11/03 01:21:46;;;;;;;;;;;;;;;;;;5051960;28;20056;-60
2022/11/03 01:24:12;;;;;;;;;;;;;;;;;;5052164;28;19928;-60
2022/11/03 01:26:38;;;;;;;;;;;;;;;;;;5053489;28;19917;-60
2022/11/03 01:29:04;;;;;;;;;;;;;;;;;;5052632;28;19915;-61
2022/11/03 01:31:30;;;;;;;;;;;;;;;;;;5052865;28;20041;-60
2022/11/03 01:33:56;;;;;;;;;;;;;;;;;;5052079;28;20365;-60
2022/11/03 01:36:22;;;;;;;;;;;;;;;;;;5051939;28;19940;-61
2022/11/03 01:38:48;;;;;;;;;;;;;;;;;;5052689;28;19909;-60
2022/11/03 01:41:14;;;;;;;;;;;;;;;;;;5052687;28;19923;-61
2022/11/03 01:43:39;;;;;;;;;;;;;;;;;;5052398;28;19959;-60
2022/11/03 01:46:05;;;;;;;;;;;;;;;;;;5034279;28;19916;-61
2022/11/03 01:48:31;;;;;;;;;;;;;;;;;;5052931;28;19954;-60
2022/11/03 01:50:57;;;;;;;;;;;;;;;;;;5052299;28;20003;-61
2022/11/03 01:53:23;;;;;;;;;;;;;;;;;;5052084;28;19920;-61
2022/11/03 01:55:49;;;;;;;;;;;;;;;;;;5052363;28;19966;-61
2022/11/03 01:58:17;;;;;;;;;;;;;;;;;;5051427;28;20320;-61
2022/11/03 02:00:42;;;;;;;;;;;;;;;;;;5052256;28;20447;-60
2022/11/03 02:03:08;;;;;;;;;;;;;;;;;;5051984;28;20023;-60
2022/11/03 02:05:34;;;;;;;;;;;;;;;;;;5051496;28;19909;-61
2022/11/03 02:08:00;;;;;;;;;;;;;;;;;;5051987;28;19934;-60
2022/11/03 02:10:26;;;;;;;;;;;;;;;;;;5052313;28;19916;-60
2022/11/03 02:12:52;;;;;;;;;;;;;;;;;;5051716;28;19982;-60
2022/11/03 02:15:18;;;;;;;;;;;;;;;;;;5050701;28;19915;-60
2022/11/03 02:17:44;;;;;;;;;;;;;;;;;;5052193;28;19913;-61
2022/11/03 02:20:10;;;;;;;;;;;;;;;;;;5051745;28;19995;-60
2022/11/03 02:22:36;;;;;;;;;;;;;;;;;;5051991;28;19920;-61
2022/11/03 02:25:02;;;;;;;;;;;;;;;;;;5051511;28;20452;-61
2022/11/03 02:27:28;;;;;;;;;;;;;;;;;;5051641;28;19909;-60
2022/11/03 02:29:54;;;;;;;;;;;;;;;;;;5051966;28;19919;-61
2022/11/03 02:32:20;;;;;;;;;;;;;;;;;;5051357;28;19952;-61
2022/11/03 02:34:46;;;;;;;;;;;;;;;;;;5051548;28;19950;-60
2022/11/03 02:37:11;;;;;;;;;;;;;;;;;;5051876;28;19917;-60
2022/11/03 02:39:37;;;;;;;;;;;;;;;;;;5051276;28;19908;-61
2022/11/03 02:42:03;;;;;;;;;;;;;;;;;;5047177;28;20015;-61
2022/11/03 02:44:29;;;;;;;;;;;;;;;;;;5051208;28;19936;-60
2022/11/03 02:46:55;;;;;;;;;;;;;;;;;;5051386;28;19939;-60
2022/11/03 02:49:21;;;;;;;;;;;;;;;;;;5050469;28;19951;-60
2022/11/03 02:51:47;;;;;;;;;;;;;;;;;;5051631;28;19909;-61
2022/11/03 02:54:13;;;;;;;;;;;;;;;;;;5050988;28;20297;-61
2022/11/03 02:56:38;;;;;;;;;;;;;;;;;;5050211;28;20012;-61
2022/11/03 02:59:04;;;;;;;;;;;;;;;;;;5051089;28;19909;-61
2022/11/03 03:01:33;;;;;;;;;;;;;;;;;;5046218;28;19909;-61
2022/11/03 03:03:59;;;;;;;;;;;;;;;;;;5050798;28;19927;-61
2022/11/03 03:06:24;;;;;;;;;;;;;;;;;;5050879;28;19908;-60
2022/11/03 03:08:50;;;;;;;;;;;;;;;;;;5049303;28;19948;-61
2022/11/03 03:11:35;;;;;;;;;;;;;;;;;;5050695;28;19912;-61
2022/11/03 03:14:01;;;;;;;;;;;;;;;;;;5050638;28;19908;-61
2022/11/03 03:16:28;;;;;;;;;;;;;;;;;;5050943;28;20366;-60
2022/11/03 03:18:54;;;;;;;;;;;;;;;;;;5050466;28;19966;-61
2022/11/03 03:21:20;;;;;;;;;;;;;;;;;;5050182;28;19908;-59
2022/11/03 03:23:48;;;;;;;;;;;;;;;;;;5050616;28;19916;-61
2022/11/03 03:26:14;;;;;;;;;;;;;;;;;;5050188;28;20396;-61
2022/11/03 03:28:40;;;;;;;;;;;;;;;;;;5050371;28;19916;-61
2022/11/03 03:31:06;;;;;;;;;;;;;;;;;;5050394;28;19909;-61
2022/11/03 03:33:32;;;;;;;;;;;;;;;;;;5050231;28;20404;-61
2022/11/03 03:35:58;;;;;;;;;;;;;;;;;;5050359;28;19909;-60
2022/11/03 03:38:24;;;;;;;;;;;;;;;;;;5050608;28;20364;-61
2022/11/03 03:40:49;;;;;;;;;;;;;;;;;;5050185;28;19951;-61
2022/11/03 03:43:15;;;;;;;;;;;;;;;;;;5050003;28;19921;-61
2022/11/03 03:45:41;;;;;;;;;;;;;;;;;;5050199;28;19944;-61
2022/11/03 03:48:07;;;;;;;;;;;;;;;;;;5049963;28;19916;-61
2022/11/03 03:50:33;;;;;;;;;;;;;;;;;;5050433;28;19940;-61
2022/11/03 03:52:59;;;;;;;;;;;;;;;;;;5049765;28;19916;-61
2022/11/03 03:55:25;;;;;;;;;;;;;;;;;;5049869;28;19913;-61
2022/11/03 03:57:51;;;;;;;;;;;;;;;;;;5050297;28;20043;-61
2022/11/03 04:00:18;;;;;;;;;;;;;;;;;;5050327;28;19913;-61
2022/11/03 04:02:44;;;;;;;;;;;;;;;;;;5049515;28;20431;-61
2022/11/03 04:05:09;;;;;;;;;;;;;;;;;;5050197;28;19917;-61
2022/11/03 04:07:48;;;;;;;;;;;;;;;;;;5049555;28;19948;-61
2022/11/03 04:10:14;;;;;;;;;;;;;;;;;;5048827;28;19912;-61
2022/11/03 04:23:38;;;;;;;;;;;;;;;;;;5049481;28;19924;-61
2022/11/03 04:26:04;;;;;;;;;;;;;;;;;;5049248;28;19920;-61
2022/11/03 04:28:30;;;;;;;;;;;;;;;;;;5049105;28;19939;-60
2022/11/03 04:30:57;;;;;;;;;;;;;;;;;;5049005;28;20011;-61
2022/11/03 04:33:23;;;;;;;;;;;;;;;;;;5049385;28;19912;-61
2022/11/03 04:35:49;;;;;;;;;;;;;;;;;;5049923;28;19916;-61
2022/11/03 04:38:15;;;;;;;;;;;;;;;;;;5049831;28;20377;-60
2022/11/03 04:40:40;;;;;;;;;;;;;;;;;;5045145;28;19916;-60
2022/11/03 04:43:06;;;;;;;;;;;;;;;;;;5049578;28;20035;-61
2022/11/03 04:45:37;;;;;;;;;;;;;;;;;;5049215;28;20262;-61
2022/11/03 04:48:03;;;;;;;;;;;;;;;;;;5048620;28;19913;-61
2022/11/03 04:50:28;;;;;;;;;;;;;;;;;;5049777;28;20296;-60
2022/11/03 04:52:54;;;;;;;;;;;;;;;;;;5049507;28;19913;-60
2022/11/03 04:55:20;;;;;;;;;;;;;;;;;;5031293;28;20369;-61
2022/11/03 04:57:46;;;;;;;;;;;;;;;;;;5049168;28;19962;-60
2022/11/03 05:00:12;;;;;;;;;;;;;;;;;;5049058;28;19909;-60
2022/11/03 05:02:38;;;;;;;;;;;;;;;;;;5049313;28;19921;-61
2022/11/03 05:05:04;;;;;;;;;;;;;;;;;;5049062;28;19919;-61
2022/11/03 05:07:30;;;;;;;;;;;;;;;;;;5048680;28;19924;-61
2022/11/03 05:09:55;;;;;;;;;;;;;;;;;;5049661;28;19944;-62
2022/11/03 05:12:21;;;;;;;;;;;;;;;;;;5049260;28;19915;-61
2022/11/03 05:14:47;;;;;;;;;;;;;;;;;;5049330;28;19913;-61
2022/11/03 05:17:13;;;;;;;;;;;;;;;;;;5049003;28;19912;-61
2022/11/03 05:19:39;;;;;;;;;;;;;;;;;;5048591;28;20484;-61
2022/11/03 05:22:05;;;;;;;;;;;;;;;;;;5052973;28;19909;-61
2022/11/03 05:24:31;;;;;;;;;;;;;;;;;;5052618;28;19931;-61
2022/11/03 05:26:57;;;;;;;;;;;;;;;;;;5049065;28;19909;-60
2022/11/03 05:29:23;;;;;;;;;;;;;;;;;;5051855;28;20373;-60
2022/11/03 05:31:48;;;;;;;;;;;;;;;;;;5051497;28;19909;-60
2022/11/03 05:34:14;;;;;;;;;;;;;;;;;;5052953;28;20409;-60
2022/11/03 05:36:40;;;;;;;;;;;;;;;;;;5052640;28;19919;-61
2022/11/03 05:39:06;;;;;;;;;;;;;;;;;;5052568;28;19982;-61
2022/11/03 05:41:32;;;;;;;;;;;;;;;;;;5052990;28;19909;-61
2022/11/03 05:43:58;;;;;;;;;;;;;;;;;;5052277;28;20254;-61
2022/11/03 05:46:24;;;;;;;;;;;;;;;;;;5052840;28;19913;-61
2022/11/03 05:48:50;;;;;;;;;;;;;;;;;;5046987;28;19912;-61
2022/11/03 05:51:16;;;;;;;;;;;;;;;;;;5051948;28;19921;-60
2022/11/03 05:53:42;;;;;;;;;;;;;;;;;;5052569;28;19982;-60
2022/11/03 05:56:08;;;;;;;;;;;;;;;;;;5052402;28;19913;-61
2022/11/03 05:58:34;;;;;;;;;;;;;;;;;;5052047;28;19921;-61
2022/11/03 06:00:59;;;;;;;;;;;;;;;;;;5052180;28;20439;-61
2022/11/03 06:03:25;;;;;;;;;;;;;;;;;;5051914;28;20007;-60
2022/11/03 06:05:51;;;;;;;;;;;;;;;;;;5052287;28;19913;-61
2022/11/03 06:08:17;;;;;;;;;;;;;;;;;;5051815;28;19919;-60
2022/11/03 06:10:43;;;;;;;;;;;;;;;;;;5052342;28;19920;-61
2022/11/03 06:13:09;;;;;;;;;;;;;;;;;;5051386;28;20365;-60
2022/11/03 06:15:35;;;;;;;;;;;;;;;;;;5051820;28;20007;-60
2022/11/03 06:18:01;;;;;;;;;;;;;;;;;;5051234;28;19940;-60
2022/11/03 06:20:27;;;;;;;;;;;;;;;;;;5045490;28;20025;-60
2022/11/03 06:22:54;;;;;;;;;;;;;;;;;;5051055;28;19927;-60
2022/11/03 06:25:20;;;;;;;;;;;;;;;;;;5051802;28;19921;-60
2022/11/03 06:27:45;;;;;;;;;;;;;;;;;;5051309;28;19915;-60
2022/11/03 06:30:11;;;;;;;;;;;;;;;;;;5051134;28;19917;-60
2022/11/03 06:32:37;;;;;;;;;;;;;;;;;;5050612;28;20416;-60
2022/11/03 06:35:04;;;;;;;;;;;;;;;;;;5050659;28;19912;-60
2022/11/03 06:37:29;;;;;;;;;;;;;;;;;;5049331;28;19935;-60
2022/11/03 06:39:55;;;;;;;;;;;;;;;;;;5050890;28;20297;-56
2022/11/03 06:42:21;;;;;;;;;;;;;;;;;;5050606;28;19917;-60
2022/11/03 06:44:47;;;;;;;;;;;;;;;;;;5051291;28;19931;-60
2022/11/03 06:47:13;;;;;;;;;;;;;;;;;;5050368;28;19917;-60
2022/11/03 06:49:39;;;;;;;;;;;;;;;;;;5050793;28;19912;-60
2022/11/03 06:52:05;;;;;;;;;;;;;;;;;;5051068;28;19912;-72
2022/11/03 06:54:31;;;;;;;;;;;;;;;;;;5050537;28;19908;-73
2022/11/03 06:56:57;;;;;;;;;;;;;;;;;;5050943;28;20508;-73
2022/11/03 06:59:22;;;;;;;;;;;;;;;;;;5051398;28;19912;-72
2022/11/03 07:01:48;;;;;;;;;;;;;;;;;;5050376;28;20703;-74
2022/11/03 07:04:14;;;;;;;;;;;;;;;;;;5050767;28;20016;-74
2022/11/03 07:06:40;;;;;;;;;;;;;;;;;;5051009;28;20015;-77
2022/11/03 07:09:08;;;;;;;;;;;;;;;;;;5050915;28;19912;-77
2022/11/03 07:11:34;;;;;;;;;;;;;;;;;;5050550;28;19920;-79
2022/11/03 07:14:00;;;;;;;;;;;;;;;;;;5050946;28;20343;-78
2022/11/03 07:16:26;;;;;;;;;;;;;;;;;;5032289;28;20381;-78
2022/11/03 07:18:52;;;;;;;;;;;;;;;;;;5050033;28;19920;-78
2022/11/03 07:21:18;;;;;;;;;;;;;;;;;;5045714;28;19947;-77
2022/11/03 07:23:44;;;;;;;;;;;;;;;;;;5050550;28;19945;-78
2022/11/03 07:26:09;;;;;;;;;;;;;;;;;;5050361;28;19963;-75
2022/11/03 07:28:35;;;;;;;;;;;;;;;;;;5041254;28;20380;-79
2022/11/03 07:31:01;;;;;;;;;;;;;;;;;;5049406;28;19928;-77
2022/11/03 07:33:27;;;;;;;;;;;;;;;;;;5049957;28;19992;-79
2022/11/03 07:35:53;;;;;;;;;;;;;;;;;;5049482;28;19909;-77
2022/11/03 07:38:19;;;;;;;;;;;;;;;;;;5050208;28;20297;-79
2022/11/03 07:40:45;;;;;;;;;;;;;;;;;;5045130;28;19909;-78
2022/11/03 07:43:11;;;;;;;;;;;;;;;;;;5048867;28;19931;-78
2022/11/03 07:45:38;;;;;;;;;;;;;;;;;;5050525;28;19913;-80
2022/11/03 07:48:04;;;;;;;;;;;;;;;;;;5050667;28;20022;-79
2022/11/03 07:50:30;;;;;;;;;;;;;;;;;;5050504;28;20392;-79
2022/11/03 07:52:56;;;;;;;;;;;;;;;;;;5049656;28;19912;-79
2022/11/03 07:55:21;;;;;;;;;;;;;;;;;;5050477;28;19908;-79
2022/11/03 07:57:47;;;;;;;;;;;;;;;;;;5050240;28;20340;-79
2022/11/03 08:00:16;;;;;;;;;;;;;;;;;;5050305;28;19912;-79
2022/11/03 08:02:41;;;;;;;;;;;;;;;;;;5050090;28;20003;-79
2022/11/03 08:05:07;;;;;;;;;;;;;;;;;;5050083;28;20008;-79
2022/11/03 08:07:33;;;;;;;;;;;;;;;;;;5049789;28;19913;-79
2022/11/03 08:09:59;;;;;;;;;;;;;;;;;;5049934;28;19912;-79
2022/11/03 08:12:25;;;;;;;;;;;;;;;;;;5050064;28;20396;-78
2022/11/03 08:14:51;;;;;;;;;;;;;;;;;;5049831;28;20396;-79
2022/11/03 08:17:17;;;;;;;;;;;;;;;;;;5050288;28;19916;-80
2022/11/03 08:19:43;;;;;;;;;;;;;;;;;;5050202;28;19955;-79
2022/11/03 08:22:09;;;;;;;;;;;;;;;;;;5049481;28;19912;-79
2022/11/03 08:24:34;;;;;;;;;;;;;;;;;;5049659;28;19929;-79
2022/11/03 08:27:02;;;;;;;;;;;;;;;;;;5049668;28;20004;-79
2022/11/03 08:29:28;;;;;;;;;;;;;;;;;;5049525;28;19913;-79
2022/11/03 08:31:54;;;;;;;;;;;;;;;;;;5049918;28;19940;-79
2022/11/03 08:34:19;;;;;;;;;;;;;;;;;;5049637;28;19920;-80
2022/11/03 08:36:45;;;;;;;;;;;;;;;;;;5049765;28;19952;-79
2022/11/03 08:39:11;;;;;;;;;;;;;;;;;;5049268;28;19913;-79
2022/11/03 08:41:37;;;;;;;;;;;;;;;;;;5049803;28;19913;-80
2022/11/03 08:44:03;;;;;;;;;;;;;;;;;;5049808;28;20367;-80
2022/11/03 08:46:29;;;;;;;;;;;;;;;;;;5049557;28;20278;-80
2022/11/03 08:48:55;;;;;;;;;;;;;;;;;;5049515;28;19917;-79
2022/11/03 08:51:21;;;;;;;;;;;;;;;;;;5048904;28;20445;-79
2022/11/03 08:53:49;;;;;;;;;;;;;;;;;;5049900;28;19912;-79
2022/11/03 08:56:15;;;;;;;;;;;;;;;;;;5051939;28;19978;-79
2022/11/03 08:58:41;;;;;;;;;;;;;;;;;;5053781;28;19962;-80
2022/11/03 09:01:07;;;;;;;;;;;;;;;;;;5054055;28;19916;-79
2022/11/03 09:03:33;;;;;;;;;;;;;;;;;;5053008;28;19963;-80
2022/11/03 09:05:59;;;;;;;;;;;;;;;;;;5052788;28;20012;-79
2022/11/03 09:08:25;;;;;;;;;;;;;;;;;;5053634;28;19908;-79
2022/11/03 09:10:51;;;;;;;;;;;;;;;;;;5053484;28;19909;-79
2022/11/03 09:13:16;;;;;;;;;;;;;;;;;;5053039;28;20383;-80
2022/11/03 09:15:43;;;;;;;;;;;;;;;;;;5053158;28;19928;-79
2022/11/03 09:18:09;;;;;;;;;;;;;;;;;;5053136;28;19948;-79
2022/11/03 09:20:35;;;;;;;;;;;;;;;;;;5052727;28;20007;-79
2022/11/03 09:23:01;;;;;;;;;;;;;;;;;;5053273;28;20276;-79
2022/11/03 09:25:26;;;;;;;;;;;;;;;;;;5053574;28;19939;-79
2022/11/03 09:27:52;;;;;;;;;;;;;;;;;;5053018;28;19958;-79
2022/11/03 09:30:19;;;;;;;;;;;;;;;;;;5053125;28;19958;-79
2022/11/03 09:32:45;;;;;;;;;;;;;;;;;;5053086;28;19912;-79
2022/11/03 09:35:13;;;;;;;;;;;;;;;;;;5052552;28;19954;-79
2022/11/03 09:37:39;;;;;;;;;;;;;;;;;;5052841;28;19913;-79
2022/11/03 09:40:05;;;;;;;;;;;;;;;;;;5052759;28;20023;-80
2022/11/03 09:42:33;;;;;;;;;;;;;;;;;;5052387;28;20377;-80
2022/11/03 09:44:58;;;;;;;;;;;;;;;;;;5052720;28;20288;-80
2022/11/03 09:47:24;;;;;;;;;;;;;;;;;;5052329;28;20381;-79
2022/11/03 09:49:50;;;;;;;;;;;;;;;;;;5052028;28;19913;-80
2022/11/03 09:52:16;;;;;;;;;;;;;;;;;;5052149;28;19912;-79
2022/11/03 09:54:42;;;;;;;;;;;;;;;;;;5052463;28;19948;-80
2022/11/03 09:57:08;;;;;;;;;;;;;;;;;;5052262;28;19913;-80
2022/11/03 09:59:34;;;;;;;;;;;;;;;;;;5052409;28;19913;-80
2022/11/03 10:02:00;;;;;;;;;;;;;;;;;;5052232;28;19954;-80
2022/11/03 10:04:26;;;;;;;;;;;;;;;;;;5052325;28;19909;-79
2022/11/03 10:06:52;;;;;;;;;;;;;;;;;;5050805;28;20004;-80
2022/11/03 10:09:19;;;;;;;;;;;;;;;;;;5052262;28;19995;-80
2022/11/03 10:11:45;;;;;;;;;;;;;;;;;;5048347;28;19913;-80
2022/11/03 10:14:12;;;;;;;;;;;;;;;;;;5052268;28;19920;-80
2022/11/03 10:16:37;;;;;;;;;;;;;;;;;;5052005;28;19918;-80
2022/11/03 10:19:03;;;;;;;;;;;;;;;;;;5052236;28;19913;-80
2022/11/03 10:21:29;;;;;;;;;;;;;;;;;;5052354;28;20045;-80
2022/11/03 10:23:55;;;;;;;;;;;;;;;;;;5052102;28;19929;-80
2022/11/03 10:26:21;;;;;;;;;;;;;;;;;;5051755;28;19955;-80
2022/11/03 10:28:47;;;;;;;;;;;;;;;;;;5051949;28;19915;-79
2022/11/03 10:31:13;;;;;;;;;;;;;;;;;;5052110;28;19909;-80
2022/11/03 10:33:39;;;;;;;;;;;;;;;;;;5051772;28;19908;-79
2022/11/03 10:36:08;;;;;;;;;;;;;;;;;;5048644;28;19919;-80
2022/11/03 10:38:34;;;;;;;;;;;;;;;;;;5051765;28;19913;-80
2022/11/03 10:40:59;;;;;;;;;;;;;;;;;;5051507;28;20413;-80
2022/11/03 10:43:25;;;;;;;;;;;;;;;;;;5051011;28;19916;-80
2022/11/03 10:45:54;;;;;;;;;;;;;;;;;;5051530;28;19913;-80
2022/11/03 10:48:20;;;;;;;;;;;;;;;;;;5051611;28;19920;-79
2022/11/03 10:50:46;;;;;;;;;;;;;;;;;;5051267;28;19959;-80
2022/11/03 10:53:12;;;;;;;;;;;;;;;;;;5051495;28;19913;-81
2022/11/03 10:55:38;;;;;;;;;;;;;;;;;;5051374;28;19912;-80
2022/11/03 10:58:05;;;;;;;;;;;;;;;;;;5050959;28;20365;-80
2022/11/03 11:00:32;;;;;;;;;;;;;;;;;;5051369;28;19916;-80
2022/11/03 11:02:58;;;;;;;;;;;;;;;;;;5044090;28;19927;-80
2022/11/03 11:05:23;;;;;;;;;;;;;;;;;;5051335;28;19909;-80
2022/11/03 11:07:50;;;;;;;;;;;;;;;;;;5051322;28;20396;-80
2022/11/03 11:10:19;;;;;;;;;;;;;;;;;;5051523;28;20003;-80
2022/11/03 11:12:44;;;;;;;;;;;;;;;;;;5050723;28;19909;-80
2022/11/03 11:15:10;;;;;;;;;;;;;;;;;;5050858;28;19908;-80
2022/11/03 11:17:36;;;;;;;;;;;;;;;;;;5050333;28;20451;-80
2022/11/03 11:20:02;;;;;;;;;;;;;;;;;;5050852;28;20014;-80
2022/11/03 11:22:28;;;;;;;;;;;;;;;;;;5051216;28;19921;-80
2022/11/03 11:24:54;;;;;;;;;;;;;;;;;;5050737;28;20047;-80
2022/11/03 11:27:20;;;;;;;;;;;;;;;;;;5050495;28;19916;-80
2022/11/03 11:29:46;;;;;;;;;;;;;;;;;;5050759;28;20293;-80
2022/11/03 11:32:12;;;;;;;;;;;;;;;;;;5050549;28;20373;-80
2022/11/03 11:34:38;;;;;;;;;;;;;;;;;;5047064;28;19964;-80
2022/11/03 11:37:04;;;;;;;;;;;;;;;;;;5047443;28;19920;-80
2022/11/03 11:39:30;;;;;;;;;;;;;;;;;;5048567;28;19912;-80
2022/11/03 11:41:56;;;;;;;;;;;;;;;;;;5046431;28;19935;-80
2022/11/03 11:44:22;;;;;;;;;;;;;;;;;;5050619;28;19940;-80
2022/11/03 11:46:48;;;;;;;;;;;;;;;;;;5031669;28;19999;-81
2022/11/03 11:49:14;;;;;;;;;;;;;;;;;;5050667;28;19959;-79
2022/11/03 11:51:40;;;;;;;;;;;;;;;;;;5047222;28;19912;-79
2022/11/03 11:54:06;;;;;;;;;;;;;;;;;;5050944;28;19913;-80
2022/11/03 11:56:32;;;;;;;;;;;;;;;;;;5040125;28;20025;-79
2022/11/03 11:58:57;;;;;;;;;;;;;;;;;;5043972;28;19909;-80
2022/11/03 12:01:23;;;;;;;;;;;;;;;;;;5048529;28;20335;-79
2022/11/03 12:03:49;;;;;;;;;;;;;;;;;;5047964;28;19917;-78
2022/11/03 12:06:15;;;;;;;;;;;;;;;;;;5047505;28;19913;-75
2022/11/03 12:08:41;;;;;;;;;;;;;;;;;;5048860;28;20016;-81
2022/11/03 12:11:07;;;;;;;;;;;;;;;;;;5048057;28;19921;-78
2022/11/03 12:13:33;;;;;;;;;;;;;;;;;;5047670;28;19974;-79
2022/11/03 12:15:59;;;;;;;;;;;;;;;;;;5047874;28;20440;-81
2022/11/03 12:18:25;;;;;;;;;;;;;;;;;;5046952;28;19924;-81
2022/11/03 12:20:51;;;;;;;;;;;;;;;;;;5047275;28;19913;-80
2022/11/03 12:23:17;;;;;;;;;;;;;;;;;;5048900;28;19930;-81
2022/11/03 12:25:42;;;;;;;;;;;;;;;;;;5047528;28;19999;-80
2022/11/03 12:28:08;;;;;;;;;;;;;;;;;;5047634;28;19921;-75
2022/11/03 12:30:36;;;;;;;;;;;;;;;;;;5047143;28;19979;-79
2022/11/03 12:33:02;;;;;;;;;;;;;;;;;;5046933;28;19978;-80
2022/11/03 12:35:28;;;;;;;;;;;;;;;;;;5046995;28;20041;-80
2022/11/03 12:37:54;;;;;;;;;;;;;;;;;;5047141;28;19921;-79
2022/11/03 12:40:20;;;;;;;;;;;;;;;;;;5047591;28;19909;-80
2022/11/03 12:42:45;;;;;;;;;;;;;;;;;;5046779;28;20035;-80
2022/11/03 12:45:12;;;;;;;;;;;;;;;;;;5047344;28;20293;-76
2022/11/03 12:47:38;;;;;;;;;;;;;;;;;;5047426;28;19913;-82
2022/11/03 12:50:04;;;;;;;;;;;;;;;;;;5047816;28;19929;-83
2022/11/03 12:52:30;;;;;;;;;;;;;;;;;;5047931;28;20331;-80
2022/11/03 12:54:56;;;;;;;;;;;;;;;;;;5047475;28;19920;-78
2022/11/03 12:57:21;;;;;;;;;;;;;;;;;;5047524;28;19916;-80
2022/11/03 12:59:47;;;;;;;;;;;;;;;;;;5046914;28;20011;-79
2022/11/03 13:02:13;;;;;;;;;;;;;;;;;;5047532;28;20369;-79
2022/11/03 13:04:39;;;;;;;;;;;;;;;;;;5046826;28;20342;-76
2022/11/03 13:07:05;;;;;;;;;;;;;;;;;;5047984;28;19923;-78
2022/11/03 13:09:31;;;;;;;;;;;;;;;;;;5045749;28;19928;-79
2022/11/03 13:14:41;;;;;;;;;;;;;;;;;;5044648;28;19970;-82
2022/11/03 13:17:07;;;;;;;;;;;;;;;;;;5046741;28;20388;-81
2022/11/03 13:19:33;;;;;;;;;;;;;;;;;;5047414;28;20316;-78
2022/11/03 13:21:59;;;;;;;;;;;;;;;;;;5047343;28;19919;-81
2022/11/03 13:24:25;;;;;;;;;;;;;;;;;;5047142;28;19936;-78
2022/11/03 13:26:51;;;;;;;;;;;;;;;;;;5045458;28;19999;-79
2022/11/03 13:29:17;;;;;;;;;;;;;;;;;;5047197;28;19913;-82
2022/11/03 13:31:43;;;;;;;;;;;;;;;;;;5045423;28;19917;-80
2022/11/03 13:34:09;;;;;;;;;;;;;;;;;;5047513;28;19920;-77
2022/11/03 13:36:34;;;;;;;;;;;;;;;;;;5047935;28;20274;-83
2022/11/03 13:39:03;;;;;;;;;;;;;;;;;;5046977;28;19944;-76
2022/11/03 13:41:29;;;;;;;;;;;;;;;;;;5048480;28;19913;-80
2022/11/03 13:43:55;;;;;;;;;;;;;;;;;;5050026;28;19971;-77
2022/11/03 13:46:21;;;;;;;;;;;;;;;;;;5050206;28;19916;-77
2022/11/03 13:48:47;;;;;;;;;;;;;;;;;;5049917;28;20297;-77
2022/11/03 13:51:16;;;;;;;;;;;;;;;;;;5048977;28;19919;-77
2022/11/03 13:53:42;;;;;;;;;;;;;;;;;;5050510;28;19971;-76
2022/11/03 13:56:08;;;;;;;;;;;;;;;;;;5049903;28;19917;-76
2022/11/03 13:58:34;;;;;;;;;;;;;;;;;;5049744;28;19920;-75
2022/11/03 14:01:00;;;;;;;;;;;;;;;;;;5049866;28;19913;-77
2022/11/03 14:03:25;;;;;;;;;;;;;;;;;;5050282;28;20015;-76
2022/11/03 14:05:51;;;;;;;;;;;;;;;;;;5031810;28;19913;-74
2022/11/03 14:08:17;;;;;;;;;;;;;;;;;;5050413;28;19959;-77
2022/11/03 14:10:43;;;;;;;;;;;;;;;;;;5043720;28;19917;-77
2022/11/03 14:13:09;;;;;;;;;;;;;;;;;;5047356;28;20328;-76
2022/11/03 14:15:35;;;;;;;;;;;;;;;;;;5047549;28;19955;-76
2022/11/03 14:18:01;;;;;;;;;;;;;;;;;;5049111;28;19987;-78
2022/11/03 14:20:27;;;;;;;;;;;;;;;;;;5046692;28;19974;-78
2022/11/03 14:22:53;;;;;;;;;;;;;;;;;;5048923;28;19939;-78
2022/11/03 14:25:19;;;;;;;;;;;;;;;;;;5047161;28;20081;-79
2022/11/03 14:27:45;;;;;;;;;;;;;;;;;;5049643;28;19916;-77
2022/11/03 14:30:11;;;;;;;;;;;;;;;;;;5032136;28;20313;-77
2022/11/03 14:32:37;;;;;;;;;;;;;;;;;;5049560;28;19917;-78
2022/11/03 14:35:03;;;;;;;;;;;;;;;;;;5050017;28;19943;-79
2022/11/03 14:37:29;;;;;;;;;;;;;;;;;;5049597;28;19959;-77
2022/11/03 14:39:55;;;;;;;;;;;;;;;;;;5048657;28;19964;-78
2022/11/03 14:42:20;;;;;;;;;;;;;;;;;;5031956;28;19939;-75
2022/11/03 14:44:46;;;;;;;;;;;;;;;;;;5048720;28;19944;-75
2022/11/03 14:47:12;;;;;;;;;;;;;;;;;;5049031;28;20612;-77
2022/11/03 14:49:38;;;;;;;;;;;;;;;;;;5048287;28;19975;-75
2022/11/03 14:52:05;;;;;;;;;;;;;;;;;;5046375;28;19945;-77
2022/11/03 14:54:31;;;;;;;;;;;;;;;;;;5048240;28;19947;-77
2022/11/03 14:56:57;;;;;;;;;;;;;;;;;;5047326;28;19979;-78
2022/11/03 14:59:23;;;;;;;;;;;;;;;;;;5049244;28;19916;-78
2022/11/03 15:01:50;;;;;;;;;;;;;;;;;;5049440;28;19998;-80
2022/11/03 15:04:16;;;;;;;;;;;;;;;;;;5048668;28;19929;-78
2022/11/03 15:06:42;;;;;;;;;;;;;;;;;;5048916;28;19920;-77
2022/11/03 15:09:08;;;;;;;;;;;;;;;;;;5048350;28;19967;-76
2022/11/03 15:11:34;;;;;;;;;;;;;;;;;;5048823;28;20420;-76
2022/11/03 15:14:01;;;;;;;;;;;;;;;;;;5048944;28;20365;-77
2022/11/03 15:16:27;;;;;;;;;;;;;;;;;;5048645;28;19932;-77
2022/11/03 15:18:52;;;;;;;;;;;;;;;;;;5045689;28;19923;-77
2022/11/03 15:21:18;;;;;;;;;;;;;;;;;;5047930;28;20007;-76
2022/11/03 15:23:44;;;;;;;;;;;;;;;;;;5044610;28;19921;-78
2022/11/03 15:26:13;;;;;;;;;;;;;;;;;;5046695;28;19920;-78
2022/11/03 15:28:41;;;;;;;;;;;;;;;;;;5045490;28;19963;-68
2022/11/03 15:31:07;;;;;;;;;;;;;;;;;;5047300;28;19920;-73
2022/11/03 15:33:33;;;;;;;;;;;;;;;;;;5046483;28;19917;-77
2022/11/03 15:35:59;;;;;;;;;;;;;;;;;;5048091;28;19959;-78
2022/11/03 15:38:24;;;;;;;;;;;;;;;;;;5044377;28;19920;-79
2022/11/03 15:40:50;;;;;;;;;;;;;;;;;;5046798;28;20028;-77
2022/11/03 15:43:16;;;;;;;;;;;;;;;;;;5046056;28;19924;-77
2022/11/03 15:45:42;;;;;;;;;;;;;;;;;;5048172;28;19920;-78
2022/11/03 15:48:08;;;;;;;;;;;;;;;;;;5042514;28;19917;-79
2022/11/03 15:50:34;;;;;;;;;;;;;;;;;;5046075;28;19985;-75
2022/11/03 15:53:00;;;;;;;;;;;;;;;;;;5042131;28;19919;-78
2022/11/03 15:55:26;;;;;;;;;;;;;;;;;;5044431;28;19917;-75
2022/11/03 15:57:52;;;;;;;;;;;;;;;;;;5045079;28;20387;-78
2022/11/03 16:00:18;;;;;;;;;;;;;;;;;;5041042;28;19916;-75
2022/11/03 16:02:43;;;;;;;;;;;;;;;;;;5041630;28;20672;-77
2022/11/03 16:05:09;;;;;;;;;;;;;;;;;;5045238;28;19962;-76
2022/11/03 16:07:35;;;;;;;;;;;;;;;;;;5047401;28;20372;-78
2022/11/03 16:10:01;;;;;;;;;;;;;;;;;;5046615;28;20015;-79
2022/11/03 16:12:27;;;;;;;;;;;;;;;;;;5048077;28;19924;-77
2022/11/03 16:14:53;;;;;;;;;;;;;;;;;;5047056;28;20026;-78
2022/11/03 16:17:21;;;;;;;;;;;;;;;;;;5047947;28;20469;-77
2022/11/03 16:19:47;;;;;;;;;;;;;;;;;;5047746;28;20015;-77
2022/11/03 16:22:12;;;;;;;;;;;;;;;;;;5047254;28;20008;-79
2022/11/03 16:24:40;;;;;;;;;;;;;;;;;;5047587;28;19925;-76
2022/11/03 16:27:06;;;;;;;;;;;;;;;;;;5046294;28;20036;-76
2022/11/03 16:29:31;;;;;;;;;;;;;;;;;;5045701;28;19999;-78
2022/11/03 16:31:57;;;;;;;;;;;;;;;;;;5044955;28;20411;-81
2022/11/03 16:34:23;;;;;;;;;;;;;;;;;;5044753;28;19915;-81
2022/11/03 16:36:49;;;;;;;;;;;;;;;;;;5043755;28;19967;-78
2022/11/03 16:39:15;;;;;;;;;;;;;;;;;;5045550;28;19912;-80
2022/11/03 16:41:41;;;;;;;;;;;;;;;;;;5039310;28;19948;-75
2022/11/03 16:44:07;;;;;;;;;;;;;;;;;;5046365;28;19925;-78
2022/11/03 16:46:33;;;;;;;;;;;;;;;;;;5043034;28;20691;-77
2022/11/03 16:48:58;;;;;;;;;;;;;;;;;;5046570;28;19917;-77
2022/11/03 16:51:25;;;;;;;;;;;;;;;;;;5045460;28;20473;-77
2022/11/03 16:53:53;;;;;;;;;;;;;;;;;;5027828;28;19914;-74